sensor_id;sensor_type;location;lat;lon;timestamp;pressure;altitude;pressure_sealevel;temperature;humidity
19508;BME280;40157;42.566;27.526;2023-01-28T00:01:14;100222.31;;;6.07;80.04
19508;BME280;40157;42.566;27.526;2023-01-28T00:03:15;100246.22;;;6.26;79.98
19508;BME280;40157;42.566;27.526;2023-01-28T00:05:16;100254.19;;;6.32;80.35
19508;BME280;40157;42.566;27.526;2023-01-28T00:07:16;100223.38;;;6.16;80.03
19508;BME280;40157;42.566;27.526;2023-01-28T00:09:18;100246.47;;;6.35;80.42
19508;BME280;40157;42.566;27.526;2023-01-28T00:11:18;100234.19;;;6.29;80.27
19508;BME280;40157;42.566;27.526;2023-01-28T00:13:21;100225.25;;;6.20;79.82
19508;BME280;40157;42.566;27.526;2023-01-28T00:15:22;100228.47;;;6.11;79.79
19508;BME280;40157;42.566;27.526;2023-01-28T00:17:24;100222.41;;;6.10;80.28
19508;BME280;40157;42.566;27.526;2023-01-28T00:19:25;100238.25;;;6.20;80.18
19508;BME280;40157;42.566;27.526;2023-01-28T00:21:25;100230.28;;;6.14;79.98
19508;BME280;40157;42.566;27.526;2023-01-28T00:23:27;100234.50;;;6.08;80.35
19508;BME280;40157;42.566;27.526;2023-01-28T00:25:28;100237.22;;;6.13;80.47
19508;BME280;40157;42.566;27.526;2023-01-28T00:27:29;100246.72;;;6.13;80.49
19508;BME280;40157;42.566;27.526;2023-01-28T00:29:30;100263.16;;;6.10;80.58
19508;BME280;40157;42.566;27.526;2023-01-28T00:31:30;100266.53;;;6.07;80.61
19508;BME280;40157;42.566;27.526;2023-01-28T00:33:31;100275.94;;;6.02;80.94
19508;BME280;40157;42.566;27.526;2023-01-28T00:35:31;100267.97;;;5.96;80.82
19508;BME280;40157;42.566;27.526;2023-01-28T00:37:32;100272.34;;;5.97;80.73
19508;BME280;40157;42.566;27.526;2023-01-28T00:39:32;100235.13;;;5.69;81.13
19508;BME280;40157;42.566;27.526;2023-01-28T00:41:33;100240.97;;;5.61;80.97
19508;BME280;40157;42.566;27.526;2023-01-28T00:43:33;100265.66;;;5.45;80.50
19508;BME280;40157;42.566;27.526;2023-01-28T00:45:34;100270.66;;;5.38;80.68
19508;BME280;40157;42.566;27.526;2023-01-28T00:47:34;100276.69;;;5.37;81.40
19508;BME280;40157;42.566;27.526;2023-01-28T00:49:34;100263.09;;;5.17;82.40
19508;BME280;40157;42.566;27.526;2023-01-28T00:51:35;100272.19;;;5.03;83.00
19508;BME280;40157;42.566;27.526;2023-01-28T00:53:36;100271.69;;;4.88;83.76
19508;BME280;40157;42.566;27.526;2023-01-28T00:55:37;100263.81;;;4.85;83.81
19508;BME280;40157;42.566;27.526;2023-01-28T00:57:38;100273.97;;;4.77;84.18
19508;BME280;40157;42.566;27.526;2023-01-28T00:59:38;100236.91;;;4.55;84.56
19508;BME280;40157;42.566;27.526;2023-01-28T01:01:39;100275.53;;;4.72;84.78
19508;BME280;40157;42.566;27.526;2023-01-28T01:03:39;100275.31;;;4.66;85.04
19508;BME280;40157;42.566;27.526;2023-01-28T01:05:40;100277.91;;;4.66;85.24
19508;BME280;40157;42.566;27.526;2023-01-28T01:07:40;100265.22;;;4.48;85.57
19508;BME280;40157;42.566;27.526;2023-01-28T01:09:41;100277.53;;;4.53;85.60
19508;BME280;40157;42.566;27.526;2023-01-28T01:11:41;100265.25;;;4.49;86.11
19508;BME280;40157;42.566;27.526;2023-01-28T01:13:42;100277.03;;;4.39;86.16
19508;BME280;40157;42.566;27.526;2023-01-28T01:15:42;100270.75;;;4.33;86.26
19508;BME280;40157;42.566;27.526;2023-01-28T01:17:46;100273.25;;;4.30;86.86
19508;BME280;40157;42.566;27.526;2023-01-28T01:19:48;100258.09;;;4.16;86.65
19508;BME280;40157;42.566;27.526;2023-01-28T01:21:48;100263.59;;;4.25;86.90
19508;BME280;40157;42.566;27.526;2023-01-28T01:23:50;100254.56;;;4.14;87.25
19508;BME280;40157;42.566;27.526;2023-01-28T01:25:50;100269.56;;;4.23;87.35
19508;BME280;40157;42.566;27.526;2023-01-28T01:27:51;100259.75;;;4.14;87.18
19508;BME280;40157;42.566;27.526;2023-01-28T01:29:51;100282.59;;;4.24;86.79
19508;BME280;40157;42.566;27.526;2023-01-28T01:31:51;100267.03;;;4.24;87.02
19508;BME280;40157;42.566;27.526;2023-01-28T01:33:52;100291.38;;;4.28;87.40
19508;BME280;40157;42.566;27.526;2023-01-28T01:35:53;100289.66;;;4.29;87.44
19508;BME280;40157;42.566;27.526;2023-01-28T01:37:54;100270.94;;;4.12;87.04
19508;BME280;40157;42.566;27.526;2023-01-28T01:39:54;100271.97;;;4.17;87.72
19508;BME280;40157;42.566;27.526;2023-01-28T01:41:55;100286.97;;;4.25;87.60
19508;BME280;40157;42.566;27.526;2023-01-28T01:44:00;100272.16;;;4.23;87.43
19508;BME280;40157;42.566;27.526;2023-01-28T01:46:01;100272.94;;;4.20;87.89
19508;BME280;40157;42.566;27.526;2023-01-28T01:48:05;100257.28;;;4.17;87.25
19508;BME280;40157;42.566;27.526;2023-01-28T01:50:33;100277.41;;;4.24;87.45
19508;BME280;40157;42.566;27.526;2023-01-28T01:52:35;100277.50;;;4.28;87.74
19508;BME280;40157;42.566;27.526;2023-01-28T01:54:37;100280.28;;;4.32;87.02
19508;BME280;40157;42.566;27.526;2023-01-28T01:56:42;100288.63;;;4.23;86.78
19508;BME280;40157;42.566;27.526;2023-01-28T01:58:46;100269.72;;;4.02;85.59
19508;BME280;40157;42.566;27.526;2023-01-28T02:00:48;100277.41;;;4.24;85.98
19508;BME280;40157;42.566;27.526;2023-01-28T02:02:50;100247.41;;;4.07;85.56
19508;BME280;40157;42.566;27.526;2023-01-28T02:04:51;100274.63;;;4.18;85.73
19508;BME280;40157;42.566;27.526;2023-01-28T02:06:54;100304.34;;;4.28;85.68
19508;BME280;40157;42.566;27.526;2023-01-28T02:08:55;100269.94;;;4.08;85.48
19508;BME280;40157;42.566;27.526;2023-01-28T02:11:01;100268.38;;;4.13;85.32
19508;BME280;40157;42.566;27.526;2023-01-28T02:13:02;100303.94;;;4.41;85.33
19508;BME280;40157;42.566;27.526;2023-01-28T02:15:05;100307.41;;;4.42;85.32
19508;BME280;40157;42.566;27.526;2023-01-28T02:17:06;100298.53;;;4.35;84.73
19508;BME280;40157;42.566;27.526;2023-01-28T02:19:08;100304.72;;;4.39;84.74
19508;BME280;40157;42.566;27.526;2023-01-28T02:28:36;100308.66;;;4.53;84.21
19508;BME280;40157;42.566;27.526;2023-01-28T02:30:50;100317.50;;;4.58;84.29
19508;BME280;40157;42.566;27.526;2023-01-28T02:32:56;100316.66;;;4.59;83.44
19508;BME280;40157;42.566;27.526;2023-01-28T02:39:11;100306.63;;;4.44;81.74
19508;BME280;40157;42.566;27.526;2023-01-28T02:41:39;100322.25;;;4.46;82.08
19508;BME280;40157;42.566;27.526;2023-01-28T02:43:43;100325.69;;;4.45;82.66
19508;BME280;40157;42.566;27.526;2023-01-28T02:45:44;100306.72;;;4.48;83.16
19508;BME280;40157;42.566;27.526;2023-01-28T02:48:03;100328.91;;;4.63;82.66
19508;BME280;40157;42.566;27.526;2023-01-28T02:50:07;100336.75;;;4.65;82.36
19508;BME280;40157;42.566;27.526;2023-01-28T02:54:59;100342.41;;;4.53;82.31
19508;BME280;40157;42.566;27.526;2023-01-28T03:01:41;100329.69;;;4.61;82.15
19508;BME280;40157;42.566;27.526;2023-01-28T03:03:58;100340.28;;;4.67;82.00
19508;BME280;40157;42.566;27.526;2023-01-28T03:06:08;100340.44;;;4.72;81.94
19508;BME280;40157;42.566;27.526;2023-01-28T03:08:09;100326.22;;;4.60;81.47
19508;BME280;40157;42.566;27.526;2023-01-28T03:10:29;100316.84;;;4.66;81.87
19508;BME280;40157;42.566;27.526;2023-01-28T03:12:30;100336.16;;;4.74;81.65
19508;BME280;40157;42.566;27.526;2023-01-28T03:14:54;100329.72;;;4.62;80.99
19508;BME280;40157;42.566;27.526;2023-01-28T03:19:59;100333.53;;;4.72;81.55
19508;BME280;40157;42.566;27.526;2023-01-28T03:22:18;100346.66;;;4.77;81.39
19508;BME280;40157;42.566;27.526;2023-01-28T03:24:45;100347.44;;;4.74;81.54
19508;BME280;40157;42.566;27.526;2023-01-28T03:29:33;100346.88;;;4.83;80.51
19508;BME280;40157;42.566;27.526;2023-01-28T03:31:55;100351.28;;;4.86;80.22
19508;BME280;40157;42.566;27.526;2023-01-28T03:34:16;100353.59;;;4.78;80.18
19508;BME280;40157;42.566;27.526;2023-01-28T03:36:35;100342.81;;;4.66;79.86
19508;BME280;40157;42.566;27.526;2023-01-28T03:38:54;100363.59;;;4.66;80.41
19508;BME280;40157;42.566;27.526;2023-01-28T03:40:58;100374.19;;;4.72;79.71
19508;BME280;40157;42.566;27.526;2023-01-28T03:43:01;100343.97;;;4.48;79.87
19508;BME280;40157;42.566;27.526;2023-01-28T03:45:03;100359.97;;;4.60;79.88
19508;BME280;40157;42.566;27.526;2023-01-28T03:47:05;100365.47;;;4.70;79.86
19508;BME280;40157;42.566;27.526;2023-01-28T03:49:08;100335.44;;;4.52;79.69
19508;BME280;40157;42.566;27.526;2023-01-28T03:51:08;100369.75;;;4.69;79.14
19508;BME280;40157;42.566;27.526;2023-01-28T03:53:09;100373.22;;;4.68;79.34
19508;BME280;40157;42.566;27.526;2023-01-28T03:55:13;100374.78;;;4.63;79.38
19508;BME280;40157;42.566;27.526;2023-01-28T03:57:18;100359.84;;;4.57;79.17
19508;BME280;40157;42.566;27.526;2023-01-28T03:59:19;100383.84;;;4.50;79.62
19508;BME280;40157;42.566;27.526;2023-01-28T04:01:20;100399.53;;;4.53;79.57
19508;BME280;40157;42.566;27.526;2023-01-28T04:03:21;100395.72;;;4.43;79.17
19508;BME280;40157;42.566;27.526;2023-01-28T04:05:21;100370.91;;;4.28;78.57
19508;BME280;40157;42.566;27.526;2023-01-28T04:07:22;100401.06;;;4.48;78.86
19508;BME280;40157;42.566;27.526;2023-01-28T04:09:23;100405.47;;;4.51;79.17
19508;BME280;40157;42.566;27.526;2023-01-28T04:11:25;100409.78;;;4.50;79.54
19508;BME280;40157;42.566;27.526;2023-01-28T04:13:25;100390.84;;;4.29;78.65
19508;BME280;40157;42.566;27.526;2023-01-28T04:15:26;100408.69;;;4.43;78.92
19508;BME280;40157;42.566;27.526;2023-01-28T04:17:26;100422.72;;;4.49;78.68
19508;BME280;40157;42.566;27.526;2023-01-28T04:19:27;100418.63;;;4.55;78.72
19508;BME280;40157;42.566;27.526;2023-01-28T04:21:28;100414.97;;;4.50;78.08
19508;BME280;40157;42.566;27.526;2023-01-28T04:23:28;100388.25;;;4.29;78.15
19508;BME280;40157;42.566;27.526;2023-01-28T04:25:30;100422.16;;;4.33;77.11
19508;BME280;40157;42.566;27.526;2023-01-28T04:27:30;100428.94;;;4.30;77.41
19508;BME280;40157;42.566;27.526;2023-01-28T04:29:31;100420.94;;;4.23;77.42
19508;BME280;40157;42.566;27.526;2023-01-28T04:31:32;100386.13;;;3.94;77.32
19508;BME280;40157;42.566;27.526;2023-01-28T04:33:33;100423.25;;;4.16;77.42
19508;BME280;40157;42.566;27.526;2023-01-28T04:35:33;100421.19;;;4.07;77.83
19508;BME280;40157;42.566;27.526;2023-01-28T04:37:33;100421.25;;;4.08;77.70
19508;BME280;40157;42.566;27.526;2023-01-28T04:39:34;100423.91;;;4.10;77.00
19508;BME280;40157;42.566;27.526;2023-01-28T04:41:35;100430.97;;;4.14;77.60
19508;BME280;40157;42.566;27.526;2023-01-28T04:43:35;100439.81;;;4.19;77.53
19508;BME280;40157;42.566;27.526;2023-01-28T04:45:36;100432.38;;;4.29;77.58
19508;BME280;40157;42.566;27.526;2023-01-28T04:47:36;100441.31;;;4.37;77.27
19508;BME280;40157;42.566;27.526;2023-01-28T04:49:37;100427.31;;;4.32;76.99
19508;BME280;40157;42.566;27.526;2023-01-28T04:51:37;100445.97;;;4.45;77.02
19508;BME280;40157;42.566;27.526;2023-01-28T04:53:38;100428.34;;;4.37;76.63
19508;BME280;40157;42.566;27.526;2023-01-28T04:55:38;100401.84;;;4.21;76.19
19508;BME280;40157;42.566;27.526;2023-01-28T04:57:39;100452.03;;;4.46;76.34
19508;BME280;40157;42.566;27.526;2023-01-28T04:59:39;100432.75;;;4.39;76.70
19508;BME280;40157;42.566;27.526;2023-01-28T05:01:40;100408.78;;;4.22;76.19
19508;BME280;40157;42.566;27.526;2023-01-28T05:03:40;100425.91;;;4.17;76.16
19508;BME280;40157;42.566;27.526;2023-01-28T05:05:41;100445.22;;;4.25;76.09
19508;BME280;40157;42.566;27.526;2023-01-28T05:07:41;100446.94;;;4.25;76.14
19508;BME280;40157;42.566;27.526;2023-01-28T05:09:42;100433.69;;;4.17;76.31
19508;BME280;40157;42.566;27.526;2023-01-28T05:11:42;100450.66;;;4.32;76.83
19508;BME280;40157;42.566;27.526;2023-01-28T05:13:42;100462.56;;;4.26;76.76
19508;BME280;40157;42.566;27.526;2023-01-28T05:15:43;100477.28;;;4.28;76.85
19508;BME280;40157;42.566;27.526;2023-01-28T05:17:49;100431.16;;;3.96;76.83
19508;BME280;40157;42.566;27.526;2023-01-28T05:19:49;100467.28;;;4.14;76.60
19508;BME280;40157;42.566;27.526;2023-01-28T05:21:50;100489.28;;;4.24;76.18
19508;BME280;40157;42.566;27.526;2023-01-28T05:23:50;100484.63;;;4.15;75.78
19508;BME280;40157;42.566;27.526;2023-01-28T05:25:51;100496.13;;;4.22;75.40
19508;BME280;40157;42.566;27.526;2023-01-28T05:27:52;100482.72;;;4.11;76.11
19508;BME280;40157;42.566;27.526;2023-01-28T05:29:52;100486.16;;;4.10;76.13
19508;BME280;40157;42.566;27.526;2023-01-28T05:31:53;100514.34;;;4.23;76.17
19508;BME280;40157;42.566;27.526;2023-01-28T05:33:53;100502.06;;;4.19;75.60
19508;BME280;40157;42.566;27.526;2023-01-28T05:35:54;100459.88;;;4.01;75.16
19508;BME280;40157;42.566;27.526;2023-01-28T05:37:54;100510.44;;;4.12;75.42
19508;BME280;40157;42.566;27.526;2023-01-28T05:39:54;100504.88;;;4.03;74.95
19508;BME280;40157;42.566;27.526;2023-01-28T05:41:55;100511.88;;;4.04;74.73
19508;BME280;40157;42.566;27.526;2023-01-28T05:43:56;100526.75;;;4.08;75.22
19508;BME280;40157;42.566;27.526;2023-01-28T05:45:56;100522.22;;;4.04;75.65
19508;BME280;40157;42.566;27.526;2023-01-28T05:47:56;100534.41;;;4.05;75.74
19508;BME280;40157;42.566;27.526;2023-01-28T05:49:57;100515.38;;;4.06;75.44
19508;BME280;40157;42.566;27.526;2023-01-28T05:51:58;100527.00;;;3.93;74.97
19508;BME280;40157;42.566;27.526;2023-01-28T05:54:00;100534.19;;;4.00;75.30
19508;BME280;40157;42.566;27.526;2023-01-28T05:56:01;100540.19;;;3.99;75.42
19508;BME280;40157;42.566;27.526;2023-01-28T05:58:01;100516.53;;;3.90;75.32
19508;BME280;40157;42.566;27.526;2023-01-28T06:00:02;100528.56;;;3.89;75.48
19508;BME280;40157;42.566;27.526;2023-01-28T06:02:04;100537.94;;;3.86;75.88
19508;BME280;40157;42.566;27.526;2023-01-28T06:04:05;100512.06;;;3.65;75.78
19508;BME280;40157;42.566;27.526;2023-01-28T06:06:05;100503.09;;;3.57;75.71
19508;BME280;40157;42.566;27.526;2023-01-28T06:08:06;100561.94;;;4.01;79.36
19508;BME280;40157;42.566;27.526;2023-01-28T06:10:07;100550.56;;;4.20;81.91
19508;BME280;40157;42.566;27.526;2023-01-28T06:12:07;100561.88;;;4.45;83.61
19508;BME280;40157;42.566;27.526;2023-01-28T06:14:08;100563.63;;;4.46;79.58
19508;BME280;40157;42.566;27.526;2023-01-28T06:16:08;100569.19;;;4.55;79.85
19508;BME280;40157;42.566;27.526;2023-01-28T06:18:09;100592.31;;;4.72;78.22
19508;BME280;40157;42.566;27.526;2023-01-28T06:20:09;100596.28;;;4.86;77.81
19508;BME280;40157;42.566;27.526;2023-01-28T06:22:10;100602.81;;;4.99;76.93
19508;BME280;40157;42.566;27.526;2023-01-28T06:24:11;100601.50;;;5.86;88.54
19508;BME280;40157;42.566;27.526;2023-01-28T06:26:12;100603.31;;;6.41;90.00
19508;BME280;40157;42.566;27.526;2023-01-28T06:28:12;100612.22;;;6.21;80.48
19508;BME280;40157;42.566;27.526;2023-01-28T06:30:13;100621.59;;;6.16;77.10
19508;BME280;40157;42.566;27.526;2023-01-28T06:32:13;100627.13;;;5.99;73.23
19508;BME280;40157;42.566;27.526;2023-01-28T06:34:13;100620.66;;;5.62;70.00
19508;BME280;40157;42.566;27.526;2023-01-28T06:36:14;100636.88;;;5.55;69.15
19508;BME280;40157;42.566;27.526;2023-01-28T06:38:15;100631.91;;;5.37;68.96
19508;BME280;40157;42.566;27.526;2023-01-28T06:40:15;100624.16;;;5.38;69.02
19508;BME280;40157;42.566;27.526;2023-01-28T06:42:16;100639.88;;;5.42;68.53
19508;BME280;40157;42.566;27.526;2023-01-28T06:44:16;100627.97;;;5.24;69.03
19508;BME280;40157;42.566;27.526;2023-01-28T06:46:17;100643.81;;;5.30;69.33
19508;BME280;40157;42.566;27.526;2023-01-28T06:48:17;100630.47;;;5.21;69.85
19508;BME280;40157;42.566;27.526;2023-01-28T06:50:18;100645.13;;;5.19;70.21
19508;BME280;40157;42.566;27.526;2023-01-28T06:52:18;100652.16;;;5.22;69.97
19508;BME280;40157;42.566;27.526;2023-01-28T06:54:19;100653.53;;;5.12;69.79
19508;BME280;40157;42.566;27.526;2023-01-28T06:56:19;100651.91;;;4.91;70.01
19508;BME280;40157;42.566;27.526;2023-01-28T06:58:20;100641.91;;;4.79;70.39
19508;BME280;40157;42.566;27.526;2023-01-28T07:00:20;100644.44;;;4.76;70.58
19508;BME280;40157;42.566;27.526;2023-01-28T07:02:21;100635.59;;;4.73;70.59
19508;BME280;40157;42.566;27.526;2023-01-28T07:04:21;100619.38;;;4.56;71.41
19508;BME280;40157;42.566;27.526;2023-01-28T07:06:22;100647.41;;;4.64;71.76
19508;BME280;40157;42.566;27.526;2023-01-28T07:08:22;100642.81;;;4.57;72.06
19508;BME280;40157;42.566;27.526;2023-01-28T07:10:23;100643.41;;;4.50;71.76
19508;BME280;40157;42.566;27.526;2023-01-28T07:12:23;100631.06;;;4.44;71.67
19508;BME280;40157;42.566;27.526;2023-01-28T07:14:24;100627.34;;;4.38;72.24
19508;BME280;40157;42.566;27.526;2023-01-28T07:16:24;100643.31;;;4.26;72.38
19508;BME280;40157;42.566;27.526;2023-01-28T07:18:25;100650.94;;;4.21;72.84
19508;BME280;40157;42.566;27.526;2023-01-28T07:20:26;100634.09;;;4.12;73.02
19508;BME280;40157;42.566;27.526;2023-01-28T07:22:26;100649.13;;;4.20;72.79
19508;BME280;40157;42.566;27.526;2023-01-28T07:24:27;100649.81;;;4.16;73.20
19508;BME280;40157;42.566;27.526;2023-01-28T07:26:27;100644.09;;;4.02;73.26
19508;BME280;40157;42.566;27.526;2023-01-28T07:28:28;100612.19;;;3.84;73.15
19508;BME280;40157;42.566;27.526;2023-01-28T07:30:28;100642.38;;;4.03;73.43
19508;BME280;40157;42.566;27.526;2023-01-28T07:32:29;100644.97;;;4.03;73.63
19508;BME280;40157;42.566;27.526;2023-01-28T07:34:30;100628.50;;;4.02;74.09
19508;BME280;40157;42.566;27.526;2023-01-28T07:36:30;100634.56;;;4.03;74.47
19508;BME280;40157;42.566;27.526;2023-01-28T07:38:31;100656.38;;;4.06;74.21
19508;BME280;40157;42.566;27.526;2023-01-28T07:40:31;100631.69;;;3.95;73.77
19508;BME280;40157;42.566;27.526;2023-01-28T07:42:31;100651.28;;;4.10;73.99
19508;BME280;40157;42.566;27.526;2023-01-28T07:44:32;100639.16;;;4.08;74.60
19508;BME280;40157;42.566;27.526;2023-01-28T07:46:34;100660.25;;;4.18;73.67
19508;BME280;40157;42.566;27.526;2023-01-28T07:48:35;100653.25;;;4.15;73.70
19508;BME280;40157;42.566;27.526;2023-01-28T07:50:36;100663.84;;;4.20;73.89
19508;BME280;40157;42.566;27.526;2023-01-28T07:52:37;100689.41;;;4.32;73.95
19508;BME280;40157;42.566;27.526;2023-01-28T07:54:43;100681.97;;;4.41;73.96
19508;BME280;40157;42.566;27.526;2023-01-28T07:56:43;100693.19;;;4.40;73.04
19508;BME280;40157;42.566;27.526;2023-01-28T07:58:44;100691.53;;;4.42;71.99
19508;BME280;40157;42.566;27.526;2023-01-28T08:00:44;100700.38;;;4.47;71.87
19508;BME280;40157;42.566;27.526;2023-01-28T08:02:46;100702.16;;;4.48;71.58
19508;BME280;40157;42.566;27.526;2023-01-28T08:04:49;100683.56;;;4.37;71.51
19508;BME280;40157;42.566;27.526;2023-01-28T08:06:50;100698.72;;;4.49;71.79
19508;BME280;40157;42.566;27.526;2023-01-28T08:08:51;100707.38;;;4.48;71.53
19508;BME280;40157;42.566;27.526;2023-01-28T08:10:52;100693.53;;;4.49;71.11
19508;BME280;40157;42.566;27.526;2023-01-28T08:12:55;100697.78;;;4.47;71.07
19508;BME280;40157;42.566;27.526;2023-01-28T08:14:55;100707.09;;;4.42;71.01
19508;BME280;40157;42.566;27.526;2023-01-28T08:16:56;100710.50;;;4.41;71.42
19508;BME280;40157;42.566;27.526;2023-01-28T08:18:57;100691.16;;;4.33;71.02
19508;BME280;40157;42.566;27.526;2023-01-28T08:20:58;100718.38;;;4.42;71.14
19508;BME280;40157;42.566;27.526;2023-01-28T08:23:16;100712.16;;;4.39;71.39
19508;BME280;40157;42.566;27.526;2023-01-28T08:25:17;100724.06;;;4.34;71.42
19508;BME280;40157;42.566;27.526;2023-01-28T08:27:18;100723.41;;;4.39;72.22
19508;BME280;40157;42.566;27.526;2023-01-28T08:29:19;100730.34;;;4.39;71.31
19508;BME280;40157;42.566;27.526;2023-01-28T08:31:19;100727.88;;;4.42;70.86
19508;BME280;40157;42.566;27.526;2023-01-28T08:33:19;100717.34;;;4.39;71.46
19508;BME280;40157;42.566;27.526;2023-01-28T08:35:20;100727.09;;;4.44;71.50
19508;BME280;40157;42.566;27.526;2023-01-28T08:37:20;100730.00;;;4.52;70.66
19508;BME280;40157;42.566;27.526;2023-01-28T08:39:21;100710.63;;;4.44;70.74
19508;BME280;40157;42.566;27.526;2023-01-28T08:41:21;100716.84;;;4.48;71.14
19508;BME280;40157;42.566;27.526;2023-01-28T08:43:22;100729.44;;;4.59;71.71
19508;BME280;40157;42.566;27.526;2023-01-28T08:45:24;100711.19;;;4.58;71.70
19508;BME280;40157;42.566;27.526;2023-01-28T08:47:25;100712.31;;;4.64;70.88
19508;BME280;40157;42.566;27.526;2023-01-28T08:49:26;100738.06;;;4.81;70.91
19508;BME280;40157;42.566;27.526;2023-01-28T08:51:27;100734.97;;;4.90;70.99
19508;BME280;40157;42.566;27.526;2023-01-28T08:53:27;100730.97;;;4.98;71.22
19508;BME280;40157;42.566;27.526;2023-01-28T08:55:28;100737.63;;;5.14;70.55
19508;BME280;40157;42.566;27.526;2023-01-28T08:57:29;100733.53;;;5.21;70.76
19508;BME280;40157;42.566;27.526;2023-01-28T08:59:29;100717.94;;;5.21;70.30
19508;BME280;40157;42.566;27.526;2023-01-28T09:01:30;100734.53;;;5.24;68.49
19508;BME280;40157;42.566;27.526;2023-01-28T09:03:31;100725.81;;;5.22;68.46
19508;BME280;40157;42.566;27.526;2023-01-28T09:05:32;100729.94;;;5.17;68.01
19508;BME280;40157;42.566;27.526;2023-01-28T09:07:34;100714.59;;;5.00;68.11
19508;BME280;40157;42.566;27.526;2023-01-28T09:09:34;100688.97;;;4.87;69.00
19508;BME280;40157;42.566;27.526;2023-01-28T09:11:35;100699.31;;;4.86;69.46
19508;BME280;40157;42.566;27.526;2023-01-28T09:13:35;100698.44;;;4.85;69.93
19508;BME280;40157;42.566;27.526;2023-01-28T09:15:36;100695.72;;;4.82;70.27
19508;BME280;40157;42.566;27.526;2023-01-28T09:17:37;100693.22;;;4.85;70.52
19508;BME280;40157;42.566;27.526;2023-01-28T09:19:37;100712.34;;;4.87;70.73
19508;BME280;40157;42.566;27.526;2023-01-28T09:21:38;100720.25;;;4.90;70.66
19508;BME280;40157;42.566;27.526;2023-01-28T09:23:39;100710.34;;;4.80;70.42
19508;BME280;40157;42.566;27.526;2023-01-28T09:25:40;100717.28;;;4.81;70.88
19508;BME280;40157;42.566;27.526;2023-01-28T09:27:40;100725.81;;;4.77;70.58
19508;BME280;40157;42.566;27.526;2023-01-28T09:29:41;100718.34;;;4.63;71.52
19508;BME280;40157;42.566;27.526;2023-01-28T09:31:41;100720.88;;;4.62;70.84
19508;BME280;40157;42.566;27.526;2023-01-28T09:33:42;100710.78;;;4.47;71.02
19508;BME280;40157;42.566;27.526;2023-01-28T09:35:42;100724.06;;;4.55;71.62
19508;BME280;40157;42.566;27.526;2023-01-28T09:37:43;100732.66;;;4.54;71.97
19508;BME280;40157;42.566;27.526;2023-01-28T09:39:43;100723.03;;;4.51;72.10
19508;BME280;40157;42.566;27.526;2023-01-28T09:44:42;100705.31;;;4.41;72.45
19508;BME280;40157;42.566;27.526;2023-01-28T09:46:50;100708.75;;;4.40;72.38
19508;BME280;40157;42.566;27.526;2023-01-28T09:48:52;100723.94;;;4.52;72.62
19508;BME280;40157;42.566;27.526;2023-01-28T09:50:54;100705.66;;;4.49;72.14
19508;BME280;40157;42.566;27.526;2023-01-28T09:52:59;100736.59;;;4.65;72.18
19508;BME280;40157;42.566;27.526;2023-01-28T09:55:06;100749.06;;;4.74;72.60
19508;BME280;40157;42.566;27.526;2023-01-28T09:57:13;100733.16;;;4.66;72.52
19508;BME280;40157;42.566;27.526;2023-01-28T09:59:21;100754.31;;;4.75;72.15
19508;BME280;40157;42.566;27.526;2023-01-28T10:03:46;100758.50;;;4.72;71.60
19508;BME280;40157;42.566;27.526;2023-01-28T10:17:56;100771.81;;;4.58;72.78
19508;BME280;40157;42.566;27.526;2023-01-28T10:20:24;100773.34;;;4.53;73.08
19508;BME280;40157;42.566;27.526;2023-01-28T10:22:31;100759.88;;;4.42;72.63
19508;BME280;40157;42.566;27.526;2023-01-28T10:24:44;100758.38;;;4.48;72.71
19508;BME280;40157;42.566;27.526;2023-01-28T10:26:46;100759.44;;;4.53;73.11
19508;BME280;40157;42.566;27.526;2023-01-28T10:28:55;100756.84;;;4.53;73.93
19508;BME280;40157;42.566;27.526;2023-01-28T10:30:57;100755.09;;;4.52;73.98
19508;BME280;40157;42.566;27.526;2023-01-28T10:33:04;100762.94;;;4.53;73.55
19508;BME280;40157;42.566;27.526;2023-01-28T10:35:05;100756.09;;;4.55;73.24
19508;BME280;40157;42.566;27.526;2023-01-28T10:37:07;100770.03;;;4.57;73.44
19508;BME280;40157;42.566;27.526;2023-01-28T10:39:13;100761.56;;;4.61;73.12
19508;BME280;40157;42.566;27.526;2023-01-28T10:41:19;100765.09;;;4.63;73.56
19508;BME280;40157;42.566;27.526;2023-01-28T10:43:22;100767.16;;;4.72;73.25
19508;BME280;40157;42.566;27.526;2023-01-28T10:45:34;100763.56;;;4.69;72.74
19508;BME280;40157;42.566;27.526;2023-01-28T10:47:43;100744.06;;;4.57;72.29
19508;BME280;40157;42.566;27.526;2023-01-28T10:49:48;100767.94;;;4.70;72.78
19508;BME280;40157;42.566;27.526;2023-01-28T10:51:52;100758.25;;;4.66;72.86
19508;BME280;40157;42.566;27.526;2023-01-28T10:53:52;100774.22;;;4.75;73.40
19508;BME280;40157;42.566;27.526;2023-01-28T10:55:55;100763.16;;;4.80;73.10
19508;BME280;40157;42.566;27.526;2023-01-28T10:57:57;100761.38;;;4.79;72.59
19508;BME280;40157;42.566;27.526;2023-01-28T11:00:21;100770.78;;;4.76;72.82
19508;BME280;40157;42.566;27.526;2023-01-28T11:02:33;100772.03;;;4.86;72.73
19508;BME280;40157;42.566;27.526;2023-01-28T11:04:36;100753.19;;;4.69;72.50
19508;BME280;40157;42.566;27.526;2023-01-28T11:06:36;100750.25;;;4.61;72.05
19508;BME280;40157;42.566;27.526;2023-01-28T11:08:42;100775.69;;;4.68;72.08
19508;BME280;40157;42.566;27.526;2023-01-28T11:10:45;100779.81;;;4.64;72.75
19508;BME280;40157;42.566;27.526;2023-01-28T11:12:54;100767.28;;;4.54;72.21
19508;BME280;40157;42.566;27.526;2023-01-28T11:14:56;100777.13;;;4.61;72.11
19508;BME280;40157;42.566;27.526;2023-01-28T11:16:57;100762.94;;;4.53;72.44
19508;BME280;40157;42.566;27.526;2023-01-28T11:19:02;100759.34;;;4.50;72.53
19508;BME280;40157;42.566;27.526;2023-01-28T11:21:17;100774.06;;;4.51;71.49
19508;BME280;40157;42.566;27.526;2023-01-28T11:23:46;100778.00;;;4.41;72.08